Time;durP1;ratioP1;P1;durP2;ratioP2;P2;SDS_P1;SDS_P2;PMS_P1;PMS_P2;Temp;Humidity;BMP_temperature;BMP_pressure;BME280_temperature;BME280_humidity;BME280_pressure;Samples;Min_cycle;Max_cycle;Signal;HPM_P1;HPM_P2
2022/03/26 09:43:22;;;;;;;15.27;11.80;;;;;;;13.83;39.46;102683.25;2540279;22;1362873;-66
2022/03/26 09:44:23;;;;;;;17.07;12.30;;;;;;;13.85;39.27;102678.09;2541576;22;20470;-66
2022/03/26 09:45:23;;;;;;;16.63;12.30;;;;;;;13.88;38.95;102679.28;2575971;23;20370;-66
2022/03/26 09:46:25;;;;;;;15.10;12.30;;;;;;;13.92;38.82;102675.25;2565108;23;20168;-66
2022/03/26 09:47:25;;;;;;;16.60;11.97;;;;;;;13.88;38.48;102670.91;2564238;23;20162;-66
2022/03/26 09:48:26;;;;;;;16.80;12.47;;;;;;;13.96;38.68;102666.88;2564762;23;20954;-66
2022/03/26 09:49:27;;;;;;;19.17;11.77;;;;;;;14.02;38.90;102668.84;2561215;23;20570;-66
2022/03/26 09:50:28;;;;;;;16.13;12.27;;;;;;;14.04;37.94;102672.00;2566650;23;20159;-66
2022/03/26 09:51:29;;;;;;;15.70;11.37;;;;;;;13.22;38.25;102550.22;2565114;23;20373;-66
2022/03/26 09:52:29;;;;;;;14.10;11.30;;;;;;;14.09;38.41;102668.00;2565037;23;20172;-66
2022/03/26 09:53:30;;;;;;;16.00;12.30;;;;;;;14.08;38.02;102660.84;2565420;23;20172;-66
2022/03/26 09:54:32;;;;;;;14.83;11.63;;;;;;;14.03;38.42;102664.06;2565423;23;20153;-66
2022/03/26 09:55:33;;;;;;;14.37;11.87;;;;;;;13.96;38.15;102659.31;2565928;23;20380;-66
2022/03/26 09:56:34;;;;;;;16.50;11.90;;;;;;;14.20;38.06;102660.41;2566359;23;20414;-66
2022/03/26 09:57:35;;;;;;;15.40;12.00;;;;;;;14.14;38.17;102660.00;2564651;23;20381;-66
2022/03/26 09:58:35;;;;;;;16.37;12.27;;;;;;;13.96;38.54;102655.72;2566234;23;20443;-66
2022/03/26 09:59:36;;;;;;;14.63;12.10;;;;;;;13.88;39.22;102668.13;2565922;23;20482;-66
2022/03/26 10:00:36;;;;;;;14.87;11.77;;;;;;;13.75;39.21;102658.63;2566557;23;20198;-65
2022/03/26 10:01:37;;;;;;;15.80;12.23;;;;;;;13.75;39.03;102661.41;2565760;23;20158;-66
2022/03/26 10:02:37;;;;;;;15.47;12.43;;;;;;;13.36;39.61;102605.06;2565389;23;20852;-66
2022/03/26 10:03:40;;;;;;;15.20;12.70;;;;;;;13.77;39.33;102656.22;2566155;23;20717;-66
2022/03/26 10:04:41;;;;;;;16.40;12.00;;;;;;;13.83;38.86;102654.63;2564970;23;20615;-66
2022/03/26 10:05:41;;;;;;;15.83;11.60;;;;;;;13.53;39.19;102612.56;2566909;23;20727;-66
2022/03/26 10:06:55;;;;;;;20.53;12.10;;;;;;;13.99;39.12;102661.28;2566875;23;20644;-66
2022/03/26 10:07:56;;;;;;;13.50;11.73;;;;;;;13.85;38.48;102664.16;2566551;23;20209;-66
2022/03/26 10:08:57;;;;;;;14.20;11.83;;;;;;;13.41;39.00;102565.66;2567234;23;20438;-66
2022/03/26 10:09:57;;;;;;;14.00;11.80;;;;;;;14.01;38.69;102633.78;2566928;23;20235;-66
2022/03/26 10:10:58;;;;;;;15.10;11.40;;;;;;;14.35;38.95;102654.28;2566427;23;20247;-66
2022/03/26 10:12:05;;;;;;;16.33;11.83;;;;;;;14.53;38.14;102645.78;2564011;23;20182;-66
2022/03/26 10:13:05;;;;;;;16.33;12.17;;;;;;;14.68;38.16;102645.28;2562247;23;20190;-66
2022/03/26 10:14:06;;;;;;;14.13;11.20;;;;;;;14.75;37.69;102647.22;2567810;23;20856;-66
2022/03/26 10:15:09;;;;;;;16.00;12.17;;;;;;;14.51;37.89;102595.19;2566091;23;20657;-66
2022/03/26 10:16:13;;;;;;;17.10;12.37;;;;;;;14.82;37.23;102641.56;2568472;23;20566;-66
2022/03/26 10:17:33;;;;;;;15.40;11.83;;;;;;;14.71;37.50;102641.66;2569006;23;20380;-66
2022/03/26 10:18:36;;;;;;;19.13;11.70;;;;;;;14.92;37.68;102646.25;2568451;23;20397;-66
2022/03/26 10:19:44;;;;;;;14.50;12.17;;;;;;;14.89;36.81;102627.53;2567946;23;20469;-65
2022/03/26 10:20:57;;;;;;;15.17;11.50;;;;;;;14.51;37.11;102551.34;2569272;23;20373;-66
2022/03/26 10:21:58;;;;;;;16.53;11.73;;;;;;;14.97;36.90;102638.19;2568122;23;20374;-66
2022/03/26 10:22:58;;;;;;;15.97;12.47;;;;;;;15.04;37.03;102637.34;2568541;23;20425;-66
2022/03/26 10:23:58;;;;;;;15.97;11.67;;;;;;;15.19;37.20;102628.41;2567236;23;20160;-66
2022/03/26 10:25:06;;;;;;;15.50;11.27;;;;;;;15.34;36.59;102627.06;2568044;23;20235;-65
2022/03/26 10:26:12;;;;;;;16.97;11.93;;;;;;;15.15;36.70;102632.44;2567571;23;20147;-66
2022/03/26 10:27:13;;;;;;;14.47;11.07;;;;;;;15.23;37.14;102622.78;2569087;23;20402;-66
2022/03/26 10:28:23;;;;;;;15.70;11.80;;;;;;;15.44;36.36;102630.94;2568340;23;20387;-66
2022/03/26 10:29:24;;;;;;;14.03;11.73;;;;;;;15.58;36.40;102627.97;2569189;23;20170;-66
2022/03/26 10:33:24;;;;;;;14.53;11.23;;;;;;;15.41;35.68;102621.38;2568049;23;20351;-66
2022/03/26 10:34:24;;;;;;;15.63;11.40;;;;;;;15.25;36.31;102626.75;2568485;23;20376;-66
2022/03/26 10:35:27;;;;;;;15.93;11.77;;;;;;;15.11;36.65;102610.13;2568806;23;20400;-66
2022/03/26 10:36:27;;;;;;;16.47;12.20;;;;;;;15.16;36.50;102622.88;2567361;23;20227;-66
2022/03/26 10:37:28;;;;;;;14.73;11.50;;;;;;;15.12;36.43;102614.50;2568858;23;20379;-66
2022/03/26 10:38:34;;;;;;;17.67;12.23;;;;;;;15.05;36.54;102608.22;2568264;23;20155;-66
2022/03/26 10:39:36;;;;;;;14.93;11.30;;;;;;;14.88;36.72;102551.38;2569452;23;20148;-66
2022/03/26 10:40:38;;;;;;;14.67;10.90;;;;;;;15.34;36.30;102613.09;2569164;23;20405;-66
2022/03/26 10:41:38;;;;;;;16.43;11.03;;;;;;;15.38;35.94;102613.84;2568883;23;20510;-66
2022/03/26 10:42:39;;;;;;;13.90;10.97;;;;;;;15.48;36.42;102604.53;2568492;23;20380;-66
2022/03/26 10:43:41;;;;;;;15.80;11.00;;;;;;;15.58;36.17;102603.59;2553903;23;20612;-66
2022/03/26 10:44:41;;;;;;;17.77;11.87;;;;;;;15.62;35.79;102595.19;2555410;23;20670;-66
2022/03/26 10:45:50;;;;;;;13.10;10.90;;;;;;;15.45;36.21;102582.22;2568678;23;20821;-66
2022/03/26 10:46:56;;;;;;;14.57;11.43;;;;;;;15.10;36.63;102512.81;2568291;23;20160;-66
2022/03/26 10:47:59;;;;;;;14.73;11.43;;;;;;;15.68;35.92;102596.31;2568072;23;20709;-66
2022/03/26 10:49:03;;;;;;;18.47;13.30;;;;;;;15.03;36.21;102515.69;2565166;23;20393;-66
2022/03/26 10:50:07;;;;;;;18.60;12.80;;;;;;;14.58;36.19;102424.91;2564987;23;20392;-66
2022/03/26 10:51:10;;;;;;;15.53;12.30;;;;;;;15.69;36.66;102590.28;2566295;23;20464;-66
2022/03/26 10:52:16;;;;;;;22.03;12.53;;;;;;;15.62;36.16;102561.66;2554493;23;20964;-67
2022/03/26 10:53:16;;;;;;;21.10;12.90;;;;;;;15.20;35.88;102489.53;2555935;23;20742;-66
2022/03/26 10:54:17;;;;;;;17.20;12.57;;;;;;;15.68;35.74;102537.59;2567826;23;20880;-66
2022/03/26 10:55:18;;;;;;;17.50;11.93;;;;;;;15.96;35.87;102593.88;2568291;23;20151;-66
2022/03/26 10:56:20;;;;;;;15.63;12.37;;;;;;;15.55;35.59;102500.25;2555621;23;20160;-67
2022/03/26 10:57:21;;;;;;;14.23;10.90;;;;;;;16.24;35.40;102590.63;2555647;23;20379;-67
2022/03/26 10:58:22;;;;;;;14.20;10.93;;;;;;;15.95;35.08;102532.78;2567705;23;20374;-66
2022/03/26 10:59:23;;;;;;;14.73;10.77;;;;;;;16.42;35.34;102584.78;2569068;23;20486;-66
2022/03/26 11:00:24;;;;;;;17.30;11.30;;;;;;;16.45;34.91;102583.94;2568782;23;20176;-65
2022/03/26 11:01:24;;;;;;;14.03;11.30;;;;;;;16.53;35.40;102579.78;2568785;23;20698;-65
2022/03/26 11:02:25;;;;;;;15.63;11.80;;;;;;;16.21;34.58;102546.75;2569038;23;20155;-66
2022/03/26 11:03:26;;;;;;;18.47;13.00;;;;;;;16.39;34.58;102568.88;2569267;23;20175;-65
2022/03/26 11:04:27;;;;;;;14.57;11.27;;;;;;;16.40;35.09;102576.03;2568713;23;20230;-66
2022/03/26 11:05:32;;;;;;;15.20;11.50;;;;;;;16.49;35.00;102574.25;2569496;23;20174;-66
2022/03/26 11:06:38;;;;;;;13.23;11.27;;;;;;;16.52;34.47;102561.41;2556032;23;20436;-66
2022/03/26 11:07:43;;;;;;;14.10;11.37;;;;;;;15.99;34.54;102463.63;2557438;23;20365;-66
2022/03/26 11:08:47;;;;;;;14.30;11.13;;;;;;;16.77;34.26;102558.97;2569071;23;20385;-66
2022/03/26 11:09:48;;;;;;;15.67;12.10;;;;;;;16.83;34.48;102559.28;2568874;23;20748;-66
2022/03/26 11:10:59;;;;;;;21.03;12.03;;;;;;;16.83;33.99;102555.25;2567711;23;20824;-66
2022/03/26 11:12:01;;;;;;;14.47;11.57;;;;;;;16.87;34.17;102555.19;2568446;23;20378;-66
2022/03/26 11:13:03;;;;;;;14.07;11.47;;;;;;;16.79;34.43;102536.91;2568335;23;20497;-66
2022/03/26 11:14:15;;;;;;;18.87;12.77;;;;;;;16.90;33.79;102545.94;2554592;23;20863;-66
2022/03/26 11:15:23;;;;;;;18.67;12.63;;;;;;;16.74;34.33;102549.41;2557314;23;20858;-66
2022/03/26 11:16:58;;;;;;;16.07;10.90;;;;;;;16.90;34.34;102543.91;2568199;23;20382;-66
2022/03/26 11:18:14;;;;;;;14.97;10.40;;;;;;;16.73;34.33;102496.63;2518853;23;20393;-67
2022/03/26 11:19:23;;;;;;;15.37;10.87;;;;;;;17.05;34.35;102539.59;2568706;23;20733;-66
2022/03/26 11:20:43;;;;;;;17.70;10.43;;;;;;;17.20;33.82;102540.09;2568152;23;20752;-66
2022/03/26 11:22:22;;;;;;;14.43;9.80;;;;;;;17.25;33.93;102539.59;2567503;23;20462;-66
2022/03/26 11:23:56;;;;;;;13.70;9.80;;;;;;;17.16;33.98;102534.56;2568325;23;20497;-66
2022/03/26 11:25:33;;;;;;;12.60;10.27;;;;;;;17.26;33.86;102535.59;2554958;23;20859;-66
2022/03/26 11:26:52;;;;;;;12.20;9.50;;;;;;;17.43;33.38;102531.63;2563903;23;20367;-66
2022/03/26 11:28:20;;;;;;;15.53;10.33;;;;;;;17.51;32.85;102533.03;2569668;23;20456;-66
2022/03/26 11:29:23;;;;;;;13.93;9.40;;;;;;;17.77;32.79;102529.25;2569347;23;20661;-66
2022/03/26 11:30:38;;;;;;;12.73;9.37;;;;;;;17.85;32.96;102521.47;2569257;23;20377;-66
2022/03/26 11:31:44;;;;;;;14.80;9.70;;;;;;;18.03;32.28;102526.19;2569139;23;20449;-66
2022/03/26 11:32:49;;;;;;;14.80;9.30;;;;;;;18.02;31.80;102520.25;2568917;23;20490;-66
2022/03/26 11:34:00;;;;;;;14.23;9.53;;;;;;;18.04;31.89;102530.56;2568557;23;20750;-66
2022/03/26 11:35:08;;;;;;;13.23;9.70;;;;;;;18.01;31.79;102521.47;2569222;23;20894;-66
2022/03/26 11:36:09;;;;;;;12.67;9.37;;;;;;;17.26;31.70;102395.47;2556592;23;20404;-66
2022/03/26 11:37:10;;;;;;;15.03;9.13;;;;;;;18.13;32.34;102509.53;2555902;23;20381;-66
2022/03/26 11:38:12;;;;;;;13.77;9.07;;;;;;;18.08;31.95;102502.44;2569538;23;20206;-66
2022/03/26 11:39:15;;;;;;;13.20;8.47;;;;;;;18.29;31.66;102513.91;2556150;23;20380;-67
2022/03/26 11:40:38;;;;;;;13.17;9.23;;;;;;;18.51;31.53;102508.56;2556746;23;20435;-66
2022/03/26 11:41:41;;;;;;;13.03;9.40;;;;;;;18.04;31.71;102411.97;2555967;23;20889;-66
2022/03/26 11:42:41;;;;;;;13.47;9.60;;;;;;;18.75;31.30;102509.09;2555536;23;20384;-67
2022/03/26 11:43:42;;;;;;;13.60;9.53;;;;;;;18.86;31.13;102507.59;2568780;23;20439;-67
2022/03/26 11:50:41;;;;;;;11.93;9.30;;;;;;;18.55;30.73;102430.63;2568790;23;20606;-66
2022/03/26 11:51:39;;;;;;;12.87;8.27;;;;;;;19.43;30.17;102476.56;2569143;23;20756;-67
2022/03/26 11:52:39;;;;;;;12.97;9.03;;;;;;;19.65;29.65;102482.34;2568361;23;20456;-66
2022/03/26 11:53:44;;;;;;;11.97;8.20;;;;;;;19.59;28.66;102473.66;2568683;23;20761;-66
2022/03/26 11:54:45;;;;;;;11.60;8.57;;;;;;;19.61;29.09;102478.84;2555895;23;20255;-66
2022/03/26 11:55:49;;;;;;;13.07;8.10;;;;;;;19.47;29.46;102465.22;2544275;23;20387;-67
2022/03/26 11:57:08;;;;;;;10.47;8.17;;;;;;;19.65;29.52;102474.66;2556437;23;20454;-67
2022/03/26 11:58:26;;;;;;;15.73;8.40;;;;;;;19.51;29.24;102416.09;2569198;23;20792;-66
2022/03/26 11:59:27;;;;;;;12.83;8.40;;;;;;;20.04;28.75;102448.03;2569266;23;20366;-67
2022/03/26 12:00:28;;;;;;;13.83;8.33;;;;;;;20.31;28.69;102454.75;2555974;23;20451;-66
2022/03/26 12:01:38;;;;;;;15.40;8.13;;;;;;;20.16;28.43;102422.72;2543494;23;20160;-66
2022/03/26 12:02:49;;;;;;;12.33;8.50;;;;;;;20.39;28.10;102461.72;2557073;23;20144;-67
2022/03/26 12:03:50;;;;;;;11.93;7.83;;;;;;;20.35;28.31;102451.81;2568526;23;20367;-67
2022/03/26 12:06:35;;;;;;;10.77;8.07;;;;;;;20.52;28.14;102456.81;2569206;23;20453;-67
2022/03/26 12:06:40;;;;;;;14.63;7.47;;;;;;;20.77;27.57;102450.28;2569299;23;20245;-67
2022/03/26 12:07:41;;;;;;;10.57;7.60;;;;;;;20.53;27.21;102381.56;2556321;23;20403;-67
2022/03/26 12:08:49;;;;;;;10.67;7.57;;;;;;;21.05;26.74;102443.59;2555969;23;20380;-67
2022/03/26 12:10:32;;;;;;;12.13;7.47;;;;;;;21.17;26.57;102451.97;2569397;23;20144;-67
2022/03/26 12:11:34;;;;;;;8.77;7.50;;;;;;;21.29;26.31;102447.50;2530948;23;20539;-67
2022/03/26 12:12:47;;;;;;;10.80;7.27;;;;;;;21.45;26.20;102436.72;2530890;23;20473;-67
2022/03/26 12:14:01;;;;;;;12.07;7.13;;;;;;;21.64;25.85;102437.59;2546986;23;20530;-67
2022/03/26 12:15:05;;;;;;;11.00;7.07;;;;;;;21.71;25.28;102438.13;2568971;23;20479;-66
2022/03/26 12:16:07;;;;;;;10.60;7.13;;;;;;;21.07;25.52;102371.41;2569296;23;20873;-67
2022/03/26 12:17:08;;;;;;;10.13;7.27;;;;;;;21.61;25.45;102436.50;2569244;23;20382;-67
2022/03/26 12:18:15;;;;;;;13.43;7.30;;;;;;;21.78;25.23;102426.53;2569216;23;20379;-67
2022/03/26 12:19:46;;;;;;;11.90;7.23;;;;;;;21.89;24.71;102435.34;2568911;23;20796;-67
2022/03/26 12:20:48;;;;;;;12.03;7.40;;;;;;;21.85;24.80;102428.28;2555030;23;20758;-67
2022/03/26 12:21:49;;;;;;;12.37;7.20;;;;;;;21.94;25.14;102423.44;2556283;23;20373;-66
2022/03/26 12:22:52;;;;;;;9.70;7.03;;;;;;;21.86;25.19;102429.84;2555581;23;20893;-66
2022/03/26 12:23:52;;;;;;;10.53;6.70;;;;;;;21.80;24.97;102429.66;2555121;23;20388;-67
2022/03/26 12:24:58;;;;;;;9.77;6.83;;;;;;;21.87;24.70;102420.91;2568980;23;20422;-67
2022/03/26 12:26:01;;;;;;;9.77;6.50;;;;;;;21.93;23.41;102423.91;2556428;23;20602;-67
2022/03/26 12:27:05;;;;;;;12.93;6.70;;;;;;;21.87;23.14;102422.94;2556118;23;20374;-66
2022/03/26 12:28:06;;;;;;;11.43;6.77;;;;;;;21.63;23.52;102382.41;2568457;23;20393;-67
2022/03/26 12:29:07;;;;;;;10.47;6.43;;;;;;;21.66;23.96;102358.91;2568553;23;20806;-67
2022/03/26 12:30:08;;;;;;;13.40;6.57;;;;;;;21.64;24.01;102345.25;2569335;23;20530;-67
2022/03/26 12:31:11;;;;;;;11.50;6.47;;;;;;;21.82;23.97;102330.44;2568529;23;20156;-67
2022/03/26 12:32:13;;;;;;;10.73;6.73;;;;;;;22.21;23.53;102366.19;2569238;23;20705;-67
2022/03/26 12:33:14;;;;;;;9.67;6.30;;;;;;;22.68;23.34;102406.81;2568903;23;20426;-67
2022/03/26 12:34:14;;;;;;;10.13;6.13;;;;;;;22.81;23.52;102410.25;2568142;23;20774;-67
2022/03/26 12:35:15;;;;;;;16.97;7.00;;;;;;;22.88;23.74;102406.31;2569226;23;20438;-66
2022/03/26 12:36:19;;;;;;;10.17;6.60;;;;;;;22.61;22.22;102398.66;2555991;23;20164;-66
2022/03/26 12:37:21;;;;;;;11.30;6.40;;;;;;;22.42;22.93;102404.78;2556501;23;20152;-66
2022/03/26 12:38:27;;;;;;;8.43;6.27;;;;;;;22.37;23.14;102394.88;2569487;23;20378;-67
2022/03/26 12:39:28;;;;;;;10.27;5.83;;;;;;;22.46;21.76;102391.34;2569311;23;20366;-66
2022/03/26 12:40:29;;;;;;;10.20;6.10;;;;;;;22.44;20.44;102383.31;2568955;23;20458;-67
2022/03/26 12:41:30;;;;;;;12.90;6.73;;;;;;;21.75;20.61;102294.81;2569243;23;20553;-66
2022/03/26 12:42:31;;;;;;;23.37;6.20;;;;;;;22.54;20.77;102389.72;2568763;23;20149;-66
2022/03/26 12:43:32;;;;;;;11.10;5.83;;;;;;;22.34;20.33;102386.59;2568461;23;20379;-67
2022/03/26 12:44:35;;;;;;;9.23;5.50;;;;;;;22.21;19.06;102394.44;2568462;23;20141;-66
2022/03/26 12:45:36;;;;;;;8.50;5.77;;;;;;;21.86;18.34;102385.44;2569126;23;20153;-67
2022/03/26 12:46:39;;;;;;;11.97;6.50;;;;;;;21.58;18.09;102358.44;2568987;23;20849;-67
2022/03/26 12:47:45;;;;;;;8.27;5.73;;;;;;;21.78;17.90;102380.59;2569389;23;20397;-66
2022/03/26 12:48:46;;;;;;;10.97;5.70;;;;;;;21.65;18.43;102377.88;2569217;23;20876;-66
2022/03/26 12:49:48;;;;;;;8.27;6.03;;;;;;;21.65;19.05;102372.22;2569239;23;20382;-67
2022/03/26 12:50:49;;;;;;;12.47;6.03;;;;;;;21.63;18.50;102365.47;2568665;23;20386;-67
2022/03/26 12:51:52;;;;;;;9.33;6.03;;;;;;;21.63;18.17;102354.97;2569676;23;20436;-66
2022/03/26 12:52:52;;;;;;;7.53;5.70;;;;;;;21.03;18.48;102299.53;2569725;23;20383;-66
2022/03/26 12:53:53;;;;;;;10.17;5.77;;;;;;;21.11;19.27;102304.41;2569094;23;20837;-67
2022/03/26 12:54:58;;;;;;;10.13;5.90;;;;;;;21.61;18.64;102368.78;2569693;23;20152;-66
2022/03/26 12:55:59;;;;;;;9.03;6.13;;;;;;;21.26;19.17;102318.69;2557025;23;20156;-66
2022/03/26 12:57:01;;;;;;;11.03;6.07;;;;;;;21.30;19.27;102311.66;2556525;23;20705;-66
2022/03/26 12:59:21;;;;;;;15.80;6.47;;;;;;;21.74;19.45;102368.69;2570232;23;20355;-66
2022/03/26 13:00:23;;;;;;;10.90;6.30;;;;;;;21.80;19.10;102349.88;2556587;23;20386;-66
2022/03/26 13:01:25;;;;;;;9.20;6.00;;;;;;;21.97;19.67;102357.56;2556620;23;20829;-66
2022/03/26 13:02:25;;;;;;;10.90;5.63;;;;;;;21.42;19.46;102291.00;2556441;23;20395;-66
2022/03/26 13:03:27;;;;;;;9.47;6.17;;;;;;;21.97;20.16;102356.78;2544173;23;20471;-66
2022/03/26 13:04:28;;;;;;;8.03;5.73;;;;;;;21.65;19.70;102298.84;2555984;23;20149;-67
2022/03/26 13:05:34;;;;;;;8.37;6.10;;;;;;;22.20;19.27;102350.50;2556727;23;20395;-67
2022/03/26 13:06:35;;;;;;;9.57;6.30;;;;;;;22.41;19.31;102347.50;2557763;23;20364;-66
2022/03/26 13:07:37;;;;;;;7.93;6.50;;;;;;;22.52;19.01;102342.16;2569760;23;20387;-66
2022/03/26 13:08:38;;;;;;;11.83;6.40;;;;;;;22.44;18.95;102346.59;2570145;23;20783;-67
2022/03/26 13:09:39;;;;;;;10.17;6.07;;;;;;;22.52;18.62;102345.00;2569740;23;20390;-66
2022/03/26 13:10:45;;;;;;;9.87;6.37;;;;;;;22.02;18.28;102303.31;2569291;23;20712;-66
2022/03/26 13:11:50;;;;;;;8.80;6.00;;;;;;;22.21;18.54;102332.31;2556989;23;20153;-67
2022/03/26 13:12:50;;;;;;;9.33;6.27;;;;;;;22.23;18.67;102301.56;2557025;23;20407;-66
2022/03/26 13:13:54;;;;;;;8.50;5.93;;;;;;;22.73;18.89;102343.22;2569288;23;20383;-67
2022/03/26 13:14:56;;;;;;;10.00;6.10;;;;;;;22.90;18.45;102333.91;2569554;23;20798;-66
2022/03/26 13:16:02;;;;;;;13.07;6.10;;;;;;;22.52;18.03;102282.06;2570056;23;20454;-67
2022/03/26 13:17:03;;;;;;;7.30;6.17;;;;;;;23.00;18.03;102338.28;2569627;23;20669;-67
2022/03/26 13:18:09;;;;;;;8.13;5.60;;;;;;;23.03;17.77;102333.69;2570193;23;20375;-67
2022/03/26 13:19:13;;;;;;;7.83;6.00;;;;;;;23.07;18.23;102332.25;2556600;23;20857;-66
2022/03/26 13:20:25;;;;;;;11.23;5.70;;;;;;;22.83;17.80;102327.81;2557457;23;20376;-67
2022/03/26 13:21:28;;;;;;;11.10;6.10;;;;;;;22.90;18.33;102333.91;2569349;23;20371;-67
2022/03/26 13:22:28;;;;;;;9.13;5.57;;;;;;;22.60;17.87;102288.94;2569356;23;20368;-66
2022/03/26 13:23:29;;;;;;;10.13;6.00;;;;;;;22.84;19.39;102321.69;2569638;23;20368;-65
2022/03/26 13:24:29;;;;;;;10.87;5.67;;;;;;;22.67;18.66;102317.66;2569173;23;20602;-66
2022/03/26 13:25:35;;;;;;;9.40;6.20;;;;;;;22.70;17.97;102325.19;2556244;23;20153;-66
2022/03/26 13:26:45;;;;;;;9.23;5.70;;;;;;;22.74;17.95;102317.31;2557921;23;20184;-66
2022/03/26 13:27:46;;;;;;;9.53;5.87;;;;;;;22.81;18.14;102319.81;2569913;23;20428;-66
2022/03/26 13:28:46;;;;;;;10.57;6.00;;;;;;;22.33;18.39;102227.63;2569483;23;20386;-66
2022/03/26 13:29:47;;;;;;;8.50;5.73;;;;;;;23.02;17.95;102298.97;2570232;23;20332;-67
2022/03/26 13:30:50;;;;;;;8.13;5.57;;;;;;;22.02;18.11;102139.56;2569226;23;20153;-66
2022/03/26 13:32:00;;;;;;;12.93;6.40;;;;;;;23.15;18.50;102310.06;2569614;23;20407;-66
2022/03/26 13:33:04;;;;;;;7.77;5.60;;;;;;;23.18;17.97;102307.09;2569882;23;20379;-66
2022/03/26 13:34:09;;;;;;;8.23;5.60;;;;;;;22.14;18.32;102157.56;2569339;23;20459;-66
2022/03/26 13:35:12;;;;;;;8.50;5.53;;;;;;;22.92;17.88;102299.50;2556196;23;20377;-66
2022/03/26 13:36:13;;;;;;;11.80;5.97;;;;;;;22.90;18.07;102302.00;2556882;23;20372;-67
2022/03/26 13:37:19;;;;;;;10.57;5.53;;;;;;;22.83;18.16;102257.13;2569706;23;20375;-67
2022/03/26 13:38:27;;;;;;;10.40;5.80;;;;;;;22.67;18.06;102209.47;2569823;23;20132;-67
2022/03/26 13:39:28;;;;;;;9.57;6.10;;;;;;;23.23;19.00;102297.94;2569840;23;20370;-66
2022/03/26 13:40:32;;;;;;;9.87;5.83;;;;;;;23.23;18.13;102292.28;2569666;23;20372;-66
2022/03/26 13:41:36;;;;;;;10.03;5.80;;;;;;;23.35;17.75;102294.13;2569666;23;20389;-66
2022/03/26 13:42:43;;;;;;;9.67;5.70;;;;;;;23.42;18.34;102290.13;2569121;23;20379;-66
2022/03/26 13:43:45;;;;;;;9.47;5.37;;;;;;;23.37;17.86;102287.97;2569112;23;20486;-66
2022/03/26 13:44:48;;;;;;;12.47;5.63;;;;;;;23.41;17.68;102277.25;2569550;23;20872;-66
2022/03/26 13:45:48;;;;;;;10.77;5.80;;;;;;;23.21;17.66;102257.25;2556058;23;20410;-67
2022/03/26 13:46:50;;;;;;;10.57;5.57;;;;;;;23.52;17.69;102281.09;2556275;23;20524;-67
2022/03/26 13:47:54;;;;;;;9.37;5.70;;;;;;;23.68;17.39;102269.34;2570006;23;20188;-67
2022/03/26 13:48:57;;;;;;;8.93;5.60;;;;;;;23.82;17.25;102279.16;2569528;23;20465;-66
2022/03/26 13:50:13;;;;;;;9.70;5.43;;;;;;;23.47;17.04;102232.88;2556689;23;20399;-66
2022/03/26 13:51:13;;;;;;;8.90;5.30;;;;;;;23.72;15.98;102275.63;2559236;23;20374;-66
2022/03/26 13:52:28;;;;;;;6.30;4.63;;;;;;;23.52;16.02;102280.31;2569201;23;20379;-66
2022/03/26 13:53:38;;;;;;;7.13;5.20;;;;;;;23.55;15.66;102280.13;2569554;23;20539;-66
2022/03/26 13:54:38;;;;;;;9.57;4.83;;;;;;;23.30;16.38;102262.88;2569937;23;20777;-67
2022/03/26 13:55:39;;;;;;;7.07;4.50;;;;;;;22.76;16.18;102169.84;2570091;23;20779;-67
2022/03/26 13:56:39;;;;;;;8.53;4.90;;;;;;;23.16;16.37;102233.22;2555792;23;20157;-66
2022/03/26 13:57:40;;;;;;;9.10;4.87;;;;;;;22.97;16.09;102195.00;2556598;23;20157;-67
2022/03/26 13:58:40;;;;;;;8.43;4.70;;;;;;;23.58;15.96;102262.19;2569767;23;20183;-67
2022/03/26 13:59:50;;;;;;;7.60;5.07;;;;;;;23.18;16.65;102236.38;2569473;23;20680;-66
2022/03/26 14:00:54;;;;;;;11.63;5.40;;;;;;;23.54;16.58;102267.25;2569115;23;20137;-67
2022/03/26 14:01:57;;;;;;;8.13;4.37;;;;;;;23.55;16.28;102249.00;2569741;23;20224;-67
2022/03/26 14:03:00;;;;;;;9.00;5.37;;;;;;;23.76;16.70;102253.56;2569511;23;20158;-67
2022/03/26 14:04:00;;;;;;;12.90;5.27;;;;;;;23.79;17.64;102263.91;2555654;23;20157;-66
2022/03/26 14:05:01;;;;;;;8.03;5.40;;;;;;;23.83;16.97;102263.72;2556173;23;20177;-67
2022/03/26 14:06:01;;;;;;;10.57;4.90;;;;;;;23.76;16.42;102242.25;2570036;23;20172;-66
2022/03/26 14:07:05;;;;;;;8.57;4.53;;;;;;;23.83;16.28;102269.38;2568841;23;20549;-67
2022/03/26 14:08:08;;;;;;;10.97;5.00;;;;;;;23.74;17.17;102256.09;2570007;23;20155;-67
2022/03/26 14:09:10;;;;;;;9.27;4.87;;;;;;;23.42;17.37;102182.63;2569490;23;20778;-66
2022/03/26 14:10:11;;;;;;;9.27;5.00;;;;;;;24.02;16.57;102262.31;2569709;23;20382;-66
2022/03/26 14:11:12;;;;;;;9.30;4.93;;;;;;;24.11;16.87;102259.41;2568954;23;20445;-66
2022/03/26 14:12:12;;;;;;;9.87;5.17;;;;;;;23.74;16.41;102215.69;2569421;23;20152;-67
2022/03/26 14:13:15;;;;;;;9.63;5.10;;;;;;;24.12;16.49;102255.28;2569359;23;20145;-67
2022/03/26 14:14:16;;;;;;;10.77;4.73;;;;;;;24.07;15.87;102255.97;2569083;23;20202;-66
2022/03/26 14:15:17;;;;;;;6.10;4.20;;;;;;;23.84;16.03;102256.81;2556714;23;20184;-66
2022/03/26 14:16:18;;;;;;;7.90;4.37;;;;;;;23.24;15.89;102174.28;2556400;23;20157;-67
2022/03/26 14:17:18;;;;;;;6.43;4.30;;;;;;;23.73;15.39;102250.91;2568376;23;20554;-66
2022/03/26 14:18:20;;;;;;;8.93;3.90;;;;;;;23.86;15.60;102251.44;2556525;23;20197;-67
2022/03/26 14:19:20;;;;;;;9.67;4.37;;;;;;;23.95;15.75;102243.66;2556799;23;20317;-66
2022/03/26 14:20:21;;;;;;;7.63;4.50;;;;;;;23.98;15.83;102234.19;2569751;23;20151;-66
2022/03/26 14:21:22;;;;;;;7.33;5.00;;;;;;;23.98;16.61;102247.56;2569170;23;20247;-66
2022/03/26 14:22:22;;;;;;;11.23;5.10;;;;;;;23.73;17.00;102192.25;2568930;23;20202;-67
2022/03/26 14:23:23;;;;;;;7.07;4.70;;;;;;;24.29;16.33;102245.03;2569763;23;20160;-67
2022/03/26 14:24:23;;;;;;;9.13;4.27;;;;;;;24.22;15.99;102246.22;2568801;23;20152;-66
2022/03/26 14:25:30;;;;;;;13.40;5.37;;;;;;;23.82;16.09;102200.66;2569383;23;20183;-66
2022/03/26 14:26:30;;;;;;;9.63;5.33;;;;;;;23.72;16.26;102179.38;2569591;23;20153;-66
2022/03/26 14:27:31;;;;;;;8.27;4.40;;;;;;;24.15;16.24;102237.34;2569395;23;20148;-67
2022/03/26 14:28:31;;;;;;;9.57;3.77;;;;;;;24.18;15.59;102233.50;2569478;23;20148;-66
2022/03/26 14:29:32;;;;;;;7.57;3.47;;;;;;;24.20;14.61;102237.41;2569414;23;20164;-66
2022/03/26 14:30:32;;;;;;;6.87;3.33;;;;;;;23.80;14.94;102172.03;2569376;23;20501;-66
2022/03/26 14:31:33;;;;;;;5.33;3.40;;;;;;;24.16;14.87;102234.00;2569445;23;20553;-66
2022/03/26 14:32:34;;;;;;;7.87;3.57;;;;;;;23.75;14.91;102166.28;2569116;23;20161;-67
2022/03/26 14:33:34;;;;;;;6.67;3.80;;;;;;;24.03;14.98;102213.69;2568981;23;20235;-66
2022/03/26 14:34:35;;;;;;;7.30;3.60;;;;;;;23.77;15.36;102152.41;2569295;23;20275;-67
2022/03/26 14:35:36;;;;;;;7.43;3.33;;;;;;;24.30;15.25;102221.88;2569561;23;20210;-67
2022/03/26 14:36:36;;;;;;;8.13;4.17;;;;;;;24.03;15.17;102161.91;2569699;23;20152;-67
2022/03/26 14:37:37;;;;;;;8.73;3.87;;;;;;;24.17;15.84;102173.25;2568899;23;20157;-66
2022/03/26 14:38:37;;;;;;;7.13;3.63;;;;;;;24.51;15.00;102225.59;2568954;23;20222;-67
2022/03/26 14:39:38;;;;;;;6.13;3.60;;;;;;;24.51;15.07;102219.94;2569915;23;20315;-66
2022/03/26 14:40:39;;;;;;;8.50;3.87;;;;;;;24.55;15.14;102218.44;2568826;23;20552;-66
2022/03/26 14:41:39;;;;;;;8.77;3.50;;;;;;;24.20;15.37;102160.94;2569610;23;20176;-66
2022/03/26 14:42:40;;;;;;;9.33;3.50;;;;;;;24.55;15.12;102217.66;2569122;23;20516;-66
2022/03/26 14:43:41;;;;;;;7.50;3.80;;;;;;;24.25;14.90;102184.97;2568782;23;20662;-67
2022/03/26 14:44:41;;;;;;;6.30;2.87;;;;;;;24.43;14.75;102216.72;2569210;23;20598;-67
2022/03/26 14:45:42;;;;;;;9.63;3.43;;;;;;;24.54;15.77;102214.03;2569805;23;20172;-67
2022/03/26 14:46:42;;;;;;;7.73;4.23;;;;;;;24.55;15.89;102209.94;2569293;23;20152;-67
2022/03/26 14:47:43;;;;;;;8.07;4.20;;;;;;;24.61;15.82;102212.91;2569423;23;20183;-67